Time;durP1;ratioP1;P1;durP2;ratioP2;P2;SDS_P1;SDS_P2;PMS_P1;PMS_P2;Temp;Humidity;BMP_temperature;BMP_pressure;BME280_temperature;BME280_humidity;BME280_pressure;Samples;Min_cycle;Max_cycle;Signal;HPM_P1;HPM_P2
2022/01/21 00:01:03;;;;;;;12.50;1.95;;;3.50;99.90;;;;;;5092778;28;20051;-77
2022/01/21 00:03:29;;;;;;;17.13;2.63;;;3.40;99.90;;;;;;5091848;28;20044;-77
2022/01/21 00:05:55;;;;;;;17.90;2.00;;;3.40;99.90;;;;;;5091700;28;20395;-78
2022/01/21 00:08:21;;;;;;;16.97;2.60;;;3.50;99.90;;;;;;5091725;28;20047;-78
2022/01/21 00:10:47;;;;;;;11.03;2.03;;;3.40;99.90;;;;;;5091691;28;20074;-78
2022/01/21 00:13:22;;;;;;;15.13;2.80;;;3.40;99.90;;;;;;5091611;28;20453;-78
2022/01/21 00:15:47;;;;;;;16.27;2.50;;;3.30;99.90;;;;;;5091843;28;20046;-78
2022/01/21 00:18:13;;;;;;;19.87;2.80;;;3.30;99.90;;;;;;5074806;28;20135;-78
2022/01/21 00:31:36;;;;;;;17.30;3.08;;;3.30;99.90;;;;;;5096830;28;20048;-78
2022/01/21 00:34:02;;;;;;;14.30;2.40;;;3.30;99.90;;;;;;5095182;28;20081;-78
2022/01/21 00:36:27;;;;;;;13.73;2.40;;;3.30;99.90;;;;;;5096755;28;20494;-77
2022/01/21 00:38:55;;;;;;;14.77;2.43;;;3.30;99.90;;;;;;5096277;28;20059;-78
2022/01/21 00:41:25;;;;;;;12.88;2.28;;;3.30;99.90;;;;;;5095338;28;20036;-78
2022/01/21 00:43:51;;;;;;;19.67;3.03;;;3.30;99.90;;;;;;5096649;28;20091;-78
2022/01/21 00:46:19;;;;;;;21.67;3.23;;;3.40;99.90;;;;;;5096267;28;20141;-78
2022/01/21 00:48:45;;;;;;;15.32;2.00;;;3.40;99.90;;;;;;5096497;28;20048;-77
2022/01/21 00:51:10;;;;;;;10.33;1.60;;;3.40;99.90;;;;;;5095033;28;20044;-78
2022/01/21 00:53:36;;;;;;;8.07;1.50;;;3.40;99.90;;;;;;5096060;28;20052;-78
2022/01/21 00:56:02;;;;;;;9.57;2.10;;;3.30;99.90;;;;;;5094979;28;20044;-78
2022/01/21 00:58:28;;;;;;;7.97;1.50;;;3.30;99.90;;;;;;5095297;28;20072;-78
2022/01/21 01:00:53;;;;;;;11.30;1.70;;;3.30;99.90;;;;;;5095172;28;20036;-86
2022/01/21 01:03:20;;;;;;;8.47;1.50;;;3.30;99.90;;;;;;5095177;28;20051;-78
2022/01/21 01:05:47;;;;;;;11.40;1.30;;;3.30;99.90;;;;;;5096196;28;20131;-78
2022/01/21 01:08:13;;;;;;;11.38;1.98;;;3.30;99.90;;;;;;5094730;28;20134;-78
2022/01/21 01:21:31;;;;;;;9.77;1.70;;;3.40;99.90;;;;;;5094848;28;20063;-77
2022/01/21 01:29:11;;;;;;;8.38;1.30;;;3.50;99.90;;;;;;5095398;28;20091;-77
2022/01/21 01:31:37;;;;;;;10.40;1.40;;;3.50;99.90;;;;;;5094401;28;20075;-77
2022/01/21 01:34:03;;;;;;;13.40;2.77;;;3.40;99.90;;;;;;5093372;28;20086;-78
2022/01/21 01:36:30;;;;;;;9.25;1.30;;;3.40;99.90;;;;;;5094131;28;20051;-77
2022/01/21 01:39:07;;;;;;;9.68;2.10;;;3.50;99.90;;;;;;5095436;28;20086;-77
2022/01/21 01:41:40;;;;;;;9.65;1.42;;;3.40;99.90;;;;;;5095747;28;20044;-77
2022/01/21 01:49:37;;;;;;;12.68;2.20;;;3.50;99.90;;;;;;5095346;28;20052;-77
2022/01/21 01:52:15;;;;;;;8.13;1.60;;;3.40;99.90;;;;;;5093670;28;20553;-77
2022/01/21 01:54:48;;;;;;;9.02;1.45;;;3.50;99.90;;;;;;5094073;28;20036;-77
2022/01/21 01:57:14;;;;;;;11.25;1.63;;;3.50;99.90;;;;;;5094027;28;20131;-77
2022/01/21 01:59:40;;;;;;;10.97;1.60;;;3.50;99.90;;;;;;5095408;28;20574;-77
2022/01/21 02:02:09;;;;;;;11.00;1.93;;;3.50;99.90;;;;;;5093761;28;20499;-77
2022/01/21 02:04:36;;;;;;;13.05;2.33;;;3.40;99.90;;;;;;5094986;28;20093;-77
2022/01/21 02:07:02;;;;;;;13.07;1.70;;;3.40;99.90;;;;;;5093428;28;20044;-84
2022/01/21 02:09:29;;;;;;;15.63;2.40;;;3.40;99.90;;;;;;5093969;28;20051;-77
2022/01/21 02:11:55;;;;;;;12.88;2.00;;;3.40;99.90;;;;;;5094985;28;20096;-77
2022/01/21 02:14:27;;;;;;;10.27;1.33;;;3.50;99.90;;;;;;5094414;28;20059;-77
2022/01/21 02:22:11;;;;;;;13.32;2.30;;;3.50;99.90;;;;;;5094377;28;20060;-77
2022/01/21 02:24:53;;;;;;;13.60;2.25;;;3.40;99.90;;;;;;5094529;28;20048;-77
2022/01/21 02:27:19;;;;;;;17.85;2.33;;;3.40;99.90;;;;;;5094542;28;20495;-77
2022/01/21 02:29:50;;;;;;;11.87;2.10;;;3.40;99.90;;;;;;5094783;28;20048;-77
2022/01/21 02:32:18;;;;;;;15.15;2.55;;;3.40;99.90;;;;;;5076911;28;20071;-78
2022/01/21 02:34:45;;;;;;;16.35;2.13;;;3.30;99.90;;;;;;5093207;28;20055;-77
2022/01/21 02:37:14;;;;;;;11.63;2.33;;;3.30;99.90;;;;;;5093827;28;20063;-78
2022/01/21 02:39:40;;;;;;;14.32;1.73;;;3.20;99.90;;;;;;5094571;28;20447;-77
2022/01/21 02:42:06;;;;;;;14.00;2.20;;;3.10;99.90;;;;;;5093962;28;20164;-81
2022/01/21 02:44:32;;;;;;;14.93;2.33;;;3.20;99.90;;;;;;5092938;28;20551;-78
2022/01/21 02:47:01;;;;;;;12.97;2.00;;;3.20;99.90;;;;;;5092745;28;20128;-78
2022/01/21 02:49:27;;;;;;;18.08;2.80;;;3.10;99.90;;;;;;5092812;28;20047;-77
2022/01/21 02:51:54;;;;;;;17.10;2.45;;;3.10;99.90;;;;;;5093926;28;20070;-77
2022/01/21 02:54:21;;;;;;;16.98;2.20;;;3.10;99.90;;;;;;5092609;28;20111;-78
2022/01/21 02:56:47;;;;;;;12.23;2.22;;;3.00;99.90;;;;;;5093881;28;20060;-77
2022/01/21 02:59:14;;;;;;;13.20;3.13;;;3.00;99.90;;;;;;5093582;28;20055;-78
2022/01/21 03:01:42;;;;;;;23.70;2.88;;;3.00;99.90;;;;;;5093957;28;20044;-77
2022/01/21 03:04:12;;;;;;;19.38;2.88;;;3.00;99.90;;;;;;5092400;28;20127;-83
2022/01/21 03:06:38;;;;;;;16.48;2.38;;;3.00;99.90;;;;;;5075851;28;20139;-78
2022/01/21 03:09:06;;;;;;;13.67;2.53;;;3.00;99.90;;;;;;5092622;28;20130;-78
2022/01/21 03:11:32;;;;;;;13.18;2.70;;;3.00;99.90;;;;;;5093281;28;20298;-78
2022/01/21 03:13:58;;;;;;;18.30;2.63;;;3.00;99.90;;;;;;5075844;28;20557;-78
2022/01/21 03:16:24;;;;;;;14.90;2.53;;;3.10;99.90;;;;;;5093353;28;20044;-78
2022/01/21 03:18:50;;;;;;;19.33;2.78;;;3.10;99.90;;;;;;5092855;28;20064;-78
2022/01/21 03:21:17;;;;;;;11.43;2.07;;;3.10;99.90;;;;;;5093239;28;20499;-77
2022/01/21 03:23:47;;;;;;;21.67;2.60;;;3.20;99.90;;;;;;5093474;28;20281;-78
2022/01/21 03:26:18;;;;;;;12.90;2.38;;;3.20;99.90;;;;;;5092370;28;20074;-78
2022/01/21 03:28:46;;;;;;;15.63;2.50;;;3.30;99.90;;;;;;5091903;28;20495;-78
2022/01/21 03:31:12;;;;;;;12.63;2.65;;;3.30;99.90;;;;;;5091914;28;20048;-78
2022/01/21 03:33:39;;;;;;;11.32;2.22;;;3.30;99.90;;;;;;5092084;28;20451;-77
2022/01/21 03:36:05;;;;;;;16.08;2.58;;;3.30;99.90;;;;;;5092397;28;20055;-78
2022/01/21 03:38:31;;;;;;;15.55;2.65;;;3.30;99.90;;;;;;5093148;28;20068;-78
2022/01/21 03:40:57;;;;;;;15.37;2.90;;;3.30;99.90;;;;;;5092320;28;20064;-78
2022/01/21 03:43:24;;;;;;;14.27;2.57;;;3.30;99.90;;;;;;5092905;28;20352;-78
2022/01/21 03:45:51;;;;;;;15.70;2.83;;;3.20;99.90;;;;;;5092188;28;20101;-78
2022/01/21 03:48:19;;;;;;;18.88;2.50;;;3.10;99.90;;;;;;5091732;28;20477;-78
2022/01/21 03:50:45;;;;;;;13.48;2.13;;;3.10;99.90;;;;;;5091872;28;20046;-78
2022/01/21 03:53:11;;;;;;;19.13;2.70;;;3.00;99.90;;;;;;5091934;28;20081;-77
2022/01/21 03:55:37;;;;;;;20.42;2.70;;;2.90;99.90;;;;;;5092851;28;20545;-77
2022/01/21 03:58:05;;;;;;;12.02;1.80;;;3.00;99.90;;;;;;5091262;28;20043;-77
2022/01/21 04:00:34;;;;;;;16.58;2.30;;;3.00;99.90;;;;;;5091736;28;20047;-78
2022/01/21 04:03:00;;;;;;;18.00;2.47;;;3.00;99.90;;;;;;5091961;28;20488;-77
2022/01/21 04:05:27;;;;;;;16.80;2.87;;;3.10;99.90;;;;;;5092623;28;20073;-78
2022/01/21 04:07:53;;;;;;;20.13;2.47;;;3.10;99.90;;;;;;5091721;28;20476;-78
2022/01/21 04:10:19;;;;;;;9.33;1.27;;;3.20;99.90;;;;;;5074831;28;20055;-78
2022/01/21 04:12:45;;;;;;;10.87;1.97;;;3.20;99.90;;;;;;5093094;28;20043;-77
2022/01/21 04:15:11;;;;;;;15.67;2.67;;;3.30;99.90;;;;;;5091637;28;20040;-77
2022/01/21 04:17:37;;;;;;;14.07;1.67;;;3.10;99.90;;;;;;5091698;28;20129;-78
2022/01/21 04:20:04;;;;;;;11.57;1.80;;;3.20;99.90;;;;;;5091769;28;20453;-78
2022/01/21 04:22:30;;;;;;;18.10;2.47;;;3.20;99.90;;;;;;5091556;28;20059;-78
2022/01/21 04:24:56;;;;;;;10.83;1.77;;;3.10;99.90;;;;;;5091601;28;20040;-78
2022/01/21 04:27:22;;;;;;;15.33;2.30;;;3.20;99.90;;;;;;5091607;28;20105;-78
2022/01/21 04:29:48;;;;;;;15.48;2.05;;;3.10;99.90;;;;;;5093002;28;20545;-77
2022/01/21 04:32:15;;;;;;;16.17;1.97;;;3.10;99.90;;;;;;5091729;28;20039;-77
2022/01/21 04:34:41;;;;;;;14.02;2.30;;;3.20;99.90;;;;;;5091455;28;20044;-77
2022/01/21 04:37:10;;;;;;;15.07;2.13;;;3.20;99.90;;;;;;5091357;28;20055;-77
2022/01/21 04:39:42;;;;;;;16.73;2.20;;;3.10;99.90;;;;;;5092006;28;20048;-77
2022/01/21 04:47:38;;;;;;;13.32;1.90;;;3.00;99.90;;;;;;5091267;28;20091;-77
2022/01/21 04:50:11;;;;;;;14.13;1.92;;;3.00;99.90;;;;;;5091552;28;20127;-77
2022/01/21 04:52:37;;;;;;;14.98;1.92;;;3.00;99.90;;;;;;5074204;28;20076;-77
2022/01/21 04:55:05;;;;;;;15.70;2.55;;;3.00;99.90;;;;;;5091526;28;20391;-77
2022/01/21 04:57:31;;;;;;;16.35;2.30;;;2.90;99.90;;;;;;5091157;28;20062;-77
2022/01/21 04:59:56;;;;;;;11.68;2.00;;;3.00;99.90;;;;;;5091443;28;20044;-77
2022/01/21 05:02:24;;;;;;;15.20;2.20;;;3.00;99.90;;;;;;5091205;28;20048;-77
2022/01/21 05:04:49;;;;;;;17.02;3.03;;;3.10;99.90;;;;;;5092421;28;20118;-77
2022/01/21 05:07:20;;;;;;;8.67;1.73;;;3.10;99.90;;;;;;5092412;28;20464;-78
2022/01/21 05:09:46;;;;;;;13.05;2.03;;;3.30;99.90;;;;;;5060865;28;20098;-78
2022/01/21 05:12:17;;;;;;;14.27;1.87;;;3.20;99.90;;;;;;5077906;28;20050;-78
2022/01/21 05:14:51;;;;;;;11.77;1.65;;;3.30;99.90;;;;;;5094669;28;20052;-78
2022/01/21 05:17:16;;;;;;;15.43;2.28;;;3.20;99.90;;;;;;5078199;28;20052;-78
2022/01/21 05:19:43;;;;;;;16.03;2.03;;;3.30;99.90;;;;;;5094280;28;20054;-77
2022/01/21 05:22:09;;;;;;;18.67;2.92;;;3.20;99.90;;;;;;5094645;28;20048;-77
2022/01/21 05:24:35;;;;;;;8.23;1.95;;;3.20;99.90;;;;;;5094421;28;20040;-77
2022/01/21 05:27:01;;;;;;;14.02;2.42;;;3.30;99.90;;;;;;5077772;28;20051;-77
2022/01/21 05:29:29;;;;;;;9.65;1.75;;;3.20;99.90;;;;;;5094147;28;20515;-77
2022/01/21 05:31:56;;;;;;;11.57;1.85;;;3.20;99.90;;;;;;5094377;28;20066;-77
2022/01/21 05:34:22;;;;;;;11.95;1.83;;;3.30;99.90;;;;;;5094534;28;20500;-81
2022/01/21 05:36:48;;;;;;;14.75;2.20;;;3.30;99.90;;;;;;5094417;28;20131;-78
2022/01/21 05:39:16;;;;;;;14.27;1.80;;;3.20;99.90;;;;;;5094290;28;20136;-77
2022/01/21 05:41:47;;;;;;;13.02;2.25;;;3.20;99.90;;;;;;5077283;28;20116;-77
2022/01/21 05:47:05;;;;;;;13.38;1.80;;;3.20;99.90;;;;;;5084574;28;20109;-77
2022/01/21 05:49:32;;;;;;;9.50;1.60;;;3.20;99.90;;;;;;5094975;28;20052;-77
2022/01/21 05:52:15;;;;;;;11.57;1.70;;;3.20;99.90;;;;;;5094352;28;20051;-77
2022/01/21 05:54:43;;;;;;;12.27;2.97;;;3.20;99.90;;;;;;5077148;28;20054;-77
2022/01/21 05:57:11;;;;;;;10.20;2.13;;;3.30;99.90;;;;;;5094146;28;20533;-77
2022/01/21 05:59:37;;;;;;;11.57;1.67;;;3.10;99.90;;;;;;5094887;28;20040;-77
2022/01/21 06:02:05;;;;;;;13.90;2.37;;;3.10;99.90;;;;;;5077112;28;20368;-77
2022/01/21 06:04:36;;;;;;;16.90;2.33;;;3.10;99.90;;;;;;5094720;28;20077;-77
2022/01/21 06:07:04;;;;;;;27.77;2.75;;;3.10;99.90;;;;;;5095234;28;20047;-77
2022/01/21 06:09:30;;;;;;;16.92;2.22;;;3.10;99.90;;;;;;5077196;28;20130;-77
2022/01/21 06:11:56;;;;;;;10.20;1.70;;;3.10;99.90;;;;;;5093906;28;20135;-77
2022/01/21 06:14:24;;;;;;;14.57;2.07;;;3.10;99.90;;;;;;5093722;28;20047;-77
2022/01/21 06:16:50;;;;;;;13.68;1.70;;;3.10;99.90;;;;;;5093385;28;20541;-77
2022/01/21 06:19:16;;;;;;;11.47;1.83;;;3.20;99.90;;;;;;5093769;28;20079;-77
2022/01/21 06:21:41;;;;;;;13.77;2.43;;;3.20;99.90;;;;;;5075750;28;20502;-77
2022/01/21 06:24:07;;;;;;;12.83;2.00;;;3.20;99.90;;;;;;5093666;28;20089;-77
2022/01/21 06:26:34;;;;;;;12.70;1.63;;;3.20;99.90;;;;;;5094247;28;20448;-77
2022/01/21 06:29:01;;;;;;;10.35;1.40;;;3.10;99.90;;;;;;5076747;28;20105;-77
2022/01/21 06:31:26;;;;;;;11.45;1.55;;;3.10;99.90;;;;;;5094493;28;20044;-77
2022/01/21 06:33:52;;;;;;;10.50;1.60;;;3.10;99.90;;;;;;5093093;28;20094;-77
2022/01/21 06:36:18;;;;;;;16.70;2.87;;;3.10;99.90;;;;;;5093290;28;20142;-77
2022/01/21 06:38:44;;;;;;;13.37;2.33;;;3.10;99.90;;;;;;5092538;28;20052;-77
2022/01/21 06:41:09;;;;;;;14.13;2.27;;;3.10;99.90;;;;;;5076386;28;20043;-77
2022/01/21 06:43:35;;;;;;;14.77;2.07;;;3.00;99.90;;;;;;5075722;28;20044;-77
2022/01/21 06:46:01;;;;;;;8.20;1.90;;;3.00;99.90;;;;;;5093086;28;20044;-77
2022/01/21 06:48:27;;;;;;;18.33;2.50;;;3.00;99.90;;;;;;5094087;28;20087;-77
2022/01/21 06:50:53;;;;;;;11.63;2.00;;;3.00;99.90;;;;;;5093690;28;20101;-77
2022/01/21 06:53:18;;;;;;;13.80;1.83;;;3.00;99.90;;;;;;5092786;28;20036;-77
2022/01/21 06:55:44;;;;;;;11.83;2.13;;;3.00;99.90;;;;;;5092694;28;20048;-77
2022/01/21 06:58:10;;;;;;;11.30;1.90;;;3.00;99.90;;;;;;5093940;28;20047;-77
2022/01/21 07:00:35;;;;;;;17.40;2.80;;;3.00;99.90;;;;;;5093548;28;20517;-77
2022/01/21 07:03:01;;;;;;;18.83;2.47;;;3.00;99.90;;;;;;5075779;28;20078;-77
2022/01/21 07:05:29;;;;;;;14.90;2.27;;;3.00;99.90;;;;;;5075997;28;20048;-77
2022/01/21 07:07:56;;;;;;;17.23;2.90;;;3.00;99.90;;;;;;5093479;28;20077;-77
2022/01/21 07:10:22;;;;;;;19.58;3.10;;;3.00;99.90;;;;;;5076009;28;20044;-77
2022/01/21 07:12:48;;;;;;;18.77;2.67;;;3.00;99.90;;;;;;5093510;28;20468;-77
2022/01/21 07:15:19;;;;;;;12.67;2.10;;;3.00;99.90;;;;;;5092737;28;20070;-77
2022/01/21 07:17:46;;;;;;;11.30;2.50;;;3.00;99.90;;;;;;5092454;28;20107;-77
2022/01/21 07:20:15;;;;;;;13.27;2.00;;;3.10;99.90;;;;;;5092321;28;20489;-77
2022/01/21 07:22:40;;;;;;;25.00;2.90;;;3.00;99.90;;;;;;5092013;28;20044;-77
2022/01/21 07:25:07;;;;;;;17.40;2.50;;;3.10;99.90;;;;;;5092334;28;20070;-77
2022/01/21 07:27:32;;;;;;;14.77;3.45;;;3.20;99.90;;;;;;5075623;28;20040;-77
2022/01/21 07:29:58;;;;;;;17.60;2.50;;;3.20;99.90;;;;;;5075331;28;20487;-77
2022/01/21 07:32:24;;;;;;;17.02;2.45;;;3.20;99.90;;;;;;5093222;28;20032;-77
2022/01/21 07:34:50;;;;;;;17.30;2.40;;;3.20;99.90;;;;;;5092160;28;20125;-77
2022/01/21 07:37:16;;;;;;;17.80;2.57;;;3.20;99.90;;;;;;5058826;28;20044;-77
2022/01/21 07:39:42;;;;;;;17.57;2.40;;;3.20;99.90;;;;;;5058780;28;20091;-77
2022/01/21 07:42:07;;;;;;;13.63;2.60;;;3.30;99.90;;;;;;5092067;28;20130;-77
2022/01/21 07:44:33;;;;;;;15.23;3.47;;;3.10;99.90;;;;;;5092070;28;20278;-77
2022/01/21 07:46:59;;;;;;;20.03;3.43;;;3.10;99.90;;;;;;5091898;28;20070;-77
2022/01/21 07:49:25;;;;;;;15.77;2.78;;;3.10;99.90;;;;;;5092246;28;20043;-77
2022/01/21 07:51:51;;;;;;;21.92;2.58;;;3.00;99.90;;;;;;5091654;28;20097;-77
2022/01/21 07:54:17;;;;;;;20.27;3.37;;;3.00;99.90;;;;;;5092153;28;20052;-77
2022/01/21 07:56:43;;;;;;;17.30;2.60;;;3.00;99.90;;;;;;5091755;28;20476;-77
2022/01/21 07:59:12;;;;;;;22.77;2.70;;;2.90;99.90;;;;;;5075279;28;20070;-77
2022/01/21 08:01:38;;;;;;;16.30;2.53;;;2.90;99.90;;;;;;5074622;28;20048;-82
2022/01/21 08:04:05;;;;;;;17.95;2.83;;;2.90;99.90;;;;;;5092306;28;20482;-77
2022/01/21 08:06:31;;;;;;;18.38;2.58;;;2.90;99.90;;;;;;5075104;28;20139;-77
2022/01/21 08:08:57;;;;;;;19.77;3.38;;;2.90;99.90;;;;;;5074963;28;20135;-77
2022/01/21 08:11:23;;;;;;;16.77;2.63;;;2.90;99.90;;;;;;5091972;28;20036;-77
2022/01/21 08:13:50;;;;;;;14.90;2.38;;;2.90;99.90;;;;;;5092551;28;20044;-77
2022/01/21 08:16:16;;;;;;;16.35;2.25;;;3.00;99.90;;;;;;5091742;28;20433;-77
2022/01/21 08:18:42;;;;;;;17.42;2.50;;;3.00;99.90;;;;;;5091485;28;20130;-77
2022/01/21 08:21:08;;;;;;;17.20;2.63;;;3.00;99.90;;;;;;5092666;28;20055;-77
2022/01/21 08:23:35;;;;;;;21.93;3.43;;;3.10;99.90;;;;;;5058342;28;20048;-77
2022/01/21 08:26:00;;;;;;;19.67;2.95;;;3.10;99.90;;;;;;5092248;28;20499;-77
2022/01/21 08:28:26;;;;;;;18.70;3.23;;;3.20;99.90;;;;;;5075146;28;20106;-77
2022/01/21 08:30:52;;;;;;;17.80;2.90;;;3.40;99.90;;;;;;5091298;28;20503;-77
2022/01/21 08:33:18;;;;;;;14.35;2.38;;;3.40;99.90;;;;;;5091408;28;20044;-76
2022/01/21 08:35:44;;;;;;;21.98;2.72;;;3.50;99.90;;;;;;5092541;28;20044;-78
2022/01/21 08:38:10;;;;;;;17.23;3.20;;;3.60;99.90;;;;;;5092811;28;20060;-77
2022/01/21 08:40:36;;;;;;;23.93;3.47;;;;;;;;;;5092684;28;20051;-76
2022/01/21 08:43:01;;;;;;;25.30;3.58;;;3.70;99.90;;;;;;5091434;28;20044;-77
2022/01/21 08:45:29;;;;;;;17.67;3.17;;;;;;;;;;5078334;28;20047;-77
2022/01/21 08:47:56;;;;;;;16.95;2.72;;;3.90;99.90;;;;;;5095855;28;20495;-80
2022/01/21 08:50:22;;;;;;;21.25;3.95;;;3.90;99.90;;;;;;5095571;28;20055;-74
2022/01/21 08:52:49;;;;;;;18.23;2.85;;;3.90;99.90;;;;;;5096051;28;20438;-75
2022/01/21 08:55:17;;;;;;;17.83;2.88;;;3.90;99.90;;;;;;5078489;28;20048;-74
2022/01/21 08:57:45;;;;;;;21.80;3.15;;;3.90;99.90;;;;;;5095948;28;20040;-78
2022/01/21 09:00:17;;;;;;;19.95;3.25;;;4.00;99.90;;;;;;5095390;28;20055;-75
2022/01/21 09:02:43;;;;;;;18.10;2.90;;;4.00;99.90;;;;;;5095946;28;20075;-82
2022/01/21 09:05:09;;;;;;;20.75;3.50;;;4.00;99.90;;;;;;5096191;28;20485;-74
2022/01/21 09:07:35;;;;;;;16.77;2.50;;;4.00;99.90;;;;;;5096128;28;20059;-76
2022/01/21 09:10:02;;;;;;;20.47;3.70;;;4.10;99.90;;;;;;5095806;28;20400;-74
2022/01/21 09:12:28;;;;;;;21.48;3.22;;;4.10;99.90;;;;;;5096038;28;20127;-75
2022/01/21 09:14:54;;;;;;;20.02;2.92;;;4.10;99.90;;;;;;5094773;28;20051;-76
2022/01/21 09:17:20;;;;;;;15.93;2.70;;;4.10;99.90;;;;;;5095920;28;20078;-75
2022/01/21 09:19:46;;;;;;;15.73;3.20;;;4.20;99.90;;;;;;5096017;28;20419;-75
2022/01/21 09:22:12;;;;;;;20.53;3.57;;;4.10;99.90;;;;;;5095870;28;20480;-76
2022/01/21 09:24:38;;;;;;;21.70;3.53;;;4.20;99.90;;;;;;5095937;28;20043;-76
2022/01/21 09:27:05;;;;;;;21.60;3.17;;;4.30;99.90;;;;;;5095582;28;20050;-76
2022/01/21 09:29:31;;;;;;;19.45;4.05;;;4.30;99.90;;;;;;5095713;28;20048;-75
2022/01/21 09:31:57;;;;;;;21.58;3.17;;;4.30;99.90;;;;;;5095319;28;20040;-77
2022/01/21 09:34:26;;;;;;;28.83;3.72;;;4.40;99.90;;;;;;5095627;28;20131;-75
2022/01/21 09:36:53;;;;;;;19.13;3.97;;;4.40;99.90;;;;;;5095369;28;20043;-75
2022/01/21 09:39:20;;;;;;;22.70;4.13;;;4.30;99.90;;;;;;5095686;28;20064;-75
2022/01/21 09:41:48;;;;;;;23.80;3.95;;;4.50;99.90;;;;;;5095459;28;20036;-82
2022/01/21 09:44:15;;;;;;;30.55;4.35;;;4.50;99.90;;;;;;5095381;28;20454;-75
2022/01/21 09:46:47;;;;;;;22.20;3.65;;;4.60;99.90;;;;;;5093772;28;20044;-76
2022/01/21 09:52:01;;;;;;;17.67;3.15;;;4.70;99.90;;;;;;5095144;28;20090;-78
2022/01/21 09:54:31;;;;;;;21.02;3.45;;;4.70;99.90;;;;;;5095260;28;20048;-75
2022/01/21 09:56:58;;;;;;;21.50;3.35;;;4.80;99.90;;;;;;5086225;28;20044;-77
2022/01/21 09:59:26;;;;;;;19.25;3.88;;;4.90;99.90;;;;;;5087273;28;20127;-77
2022/01/21 10:01:55;;;;;;;17.33;3.00;;;5.00;99.90;;;;;;5084742;28;20123;-78
2022/01/21 10:04:26;;;;;;;18.77;2.80;;;5.00;99.90;;;;;;5089548;28;20040;-75
2022/01/21 10:06:53;;;;;;;23.67;3.05;;;5.20;99.90;;;;;;5085179;28;20040;-74
2022/01/21 10:09:21;;;;;;;23.67;3.63;;;5.10;99.90;;;;;;5088787;28;20044;-76
2022/01/21 10:11:49;;;;;;;26.88;3.60;;;5.20;99.90;;;;;;5081431;28;20044;-76
2022/01/21 10:14:21;;;;;;;23.10;3.10;;;5.30;99.90;;;;;;5088543;28;20058;-76
2022/01/21 10:16:48;;;;;;;26.60;3.13;;;5.30;99.90;;;;;;5087631;28;20046;-75
2022/01/21 10:19:25;;;;;;;27.90;3.28;;;5.40;99.90;;;;;;5084550;28;20051;-78
2022/01/21 10:22:11;;;;;;;20.85;3.65;;;5.40;99.90;;;;;;5085511;28;20360;-81
2022/01/21 10:24:49;;;;;;;;;;;5.50;99.90;;;;;;5067796;28;20039;-81
2022/01/21 10:27:30;;;;;;;20.08;3.33;;;5.40;99.90;;;;;;5087852;28;19970;-82
2022/01/21 10:29:56;;;;;;;12.10;2.85;;;5.60;99.90;;;;;;5084664;28;20048;-78
2022/01/21 10:32:36;;;;;;;14.13;2.53;;;5.70;99.90;;;;;;5086174;28;20124;-81
2022/01/21 10:35:02;;;;;;;26.17;3.70;;;5.80;99.90;;;;;;5084396;28;20561;-84
2022/01/21 10:37:36;;;;;;;16.73;3.10;;;5.90;99.90;;;;;;5052995;28;20056;-79
2022/01/21 10:40:08;;;;;;;18.58;3.08;;;6.00;99.90;;;;;;5087236;28;20052;-82
2022/01/21 10:42:35;;;;;;;15.50;2.78;;;6.00;99.90;;;;;;5082814;28;20052;-79
2022/01/21 10:45:03;;;;;;;22.52;3.13;;;6.00;99.90;;;;;;5086177;28;20056;-82
2022/01/21 10:47:31;;;;;;;17.95;2.80;;;6.10;99.90;;;;;;5083195;28;20048;-83
2022/01/21 10:50:00;;;;;;;20.63;2.85;;;6.20;99.90;;;;;;5089059;28;20044;-83
2022/01/21 10:52:39;;;;;;;18.60;2.67;;;6.20;99.90;;;;;;5068693;28;20052;-81
2022/01/21 10:55:34;;;;;;;19.40;2.67;;;6.30;99.90;;;;;;5088411;28;20047;-80
2022/01/21 10:58:14;;;;;;;18.13;2.72;;;6.20;99.90;;;;;;5088308;28;20052;-78
2022/01/21 11:01:00;;;;;;;15.20;3.40;;;6.30;99.90;;;;;;5093359;28;20056;-79
2022/01/21 11:03:31;;;;;;;20.83;3.53;;;6.30;99.90;;;;;;5093753;28;20048;-80
2022/01/21 11:06:19;;;;;;;14.93;3.03;;;6.30;99.90;;;;;;5093484;28;20097;-76
2022/01/21 11:08:44;;;;;;;16.88;3.13;;;6.40;99.90;;;;;;5093879;28;20083;-79
2022/01/21 11:11:10;;;;;;;14.97;2.83;;;6.40;99.90;;;;;;5093307;28;20140;-78
2022/01/21 11:13:39;;;;;;;18.73;3.37;;;6.50;99.90;;;;;;5093595;28;20048;-74
2022/01/21 11:16:16;;;;;;;22.70;3.58;;;6.50;99.90;;;;;;5093450;28;20052;-75
2022/01/21 11:18:55;;;;;;;21.05;3.47;;;6.50;99.90;;;;;;5087316;28;20406;-78
2022/01/21 11:21:21;;;;;;;12.30;2.08;;;6.50;99.90;;;;;;5086881;28;20047;-79
2022/01/21 11:23:48;;;;;;;18.52;2.42;;;6.60;99.90;;;;;;5088001;28;20044;-79
2022/01/21 11:26:16;;;;;;;14.20;2.42;;;;;;;;;;5087280;28;20388;-79
2022/01/21 11:28:48;;;;;;;22.25;3.13;;;;;;;;;;5088447;28;20484;-79
2022/01/21 11:31:15;;;;;;;15.15;2.60;;;;;;;;;;5085525;28;20093;-81
2022/01/21 11:33:41;;;;;;;16.65;2.00;;;;;;;;;;5088059;28;20051;-77
2022/01/21 11:36:08;;;;;;;12.00;1.90;;;;;;;;;;5087896;28;20051;-82
2022/01/21 11:38:39;;;;;;;14.88;2.45;;;7.00;99.90;;;;;;5088100;28;20083;-79
2022/01/21 11:41:07;;;;;;;15.40;2.55;;;7.00;99.90;;;;;;5085639;28;20032;-76
2022/01/21 11:43:35;;;;;;;13.50;2.15;;;7.00;99.90;;;;;;5087601;28;20507;-79
2022/01/21 11:46:18;;;;;;;17.15;3.50;;;7.00;99.90;;;;;;5086621;28;20052;-83
2022/01/21 11:48:51;;;;;;;15.00;3.15;;;6.90;99.90;;;;;;5087451;28;20043;-76
2022/01/21 11:51:20;;;;;;;15.35;2.88;;;6.90;99.90;;;;;;5084935;28;20817;-76
2022/01/21 11:53:51;;;;;;;17.00;2.63;;;6.90;99.90;;;;;;5087510;28;20055;-76
2022/01/21 11:56:45;;;;;;;17.85;2.78;;;6.90;99.90;;;;;;5087447;28;20230;-75
2022/01/21 11:59:20;;;;;;;17.70;2.90;;;6.90;99.90;;;;;;5087658;28;20129;-76
2022/01/21 12:01:49;;;;;;;15.57;2.47;;;6.90;99.90;;;;;;5086109;28;20389;-75
2022/01/21 12:04:35;;;;;;;16.83;2.58;;;6.90;99.90;;;;;;5091424;28;20131;-76
2022/01/21 12:07:01;;;;;;;15.88;2.33;;;6.90;99.90;;;;;;5091168;28;20066;-84
2022/01/21 12:09:54;;;;;;;16.08;2.80;;;6.80;99.90;;;;;;5091876;28;20083;-76
2022/01/21 12:12:20;;;;;;;16.77;2.92;;;6.80;99.90;;;;;;5092687;28;20048;-78
2022/01/21 12:14:52;;;;;;;23.20;3.40;;;6.80;99.90;;;;;;5092561;28;20373;-77
2022/01/21 12:17:48;;;;;;;17.38;2.90;;;6.80;99.90;;;;;;5092646;28;20359;-75
2022/01/21 12:20:14;;;;;;;19.35;3.28;;;6.80;99.90;;;;;;5079796;28;20100;-74
2022/01/21 12:22:40;;;;;;;17.53;2.83;;;6.80;99.90;;;;;;5091658;28;20051;-78
2022/01/21 12:25:13;;;;;;;20.33;3.23;;;6.90;99.90;;;;;;5091929;28;20047;-81
2022/01/21 12:27:59;;;;;;;19.58;3.20;;;6.90;99.90;;;;;;5090738;28;20048;-75
2022/01/21 12:30:28;;;;;;;23.05;2.90;;;6.90;99.90;;;;;;5089774;28;20086;-75
2022/01/21 12:33:01;;;;;;;23.90;3.60;;;6.90;99.90;;;;;;5091638;28;20043;-82
2022/01/21 12:35:27;;;;;;;18.15;3.17;;;6.90;99.90;;;;;;5091461;28;20048;-79
2022/01/21 12:41:04;;;;;;;14.82;3.28;;;;;;;;;;5091176;28;20119;-75
2022/01/21 12:43:39;;;;;;;21.00;3.40;;;;;;;;;;5091048;28;20051;-74
2022/01/21 12:46:11;;;;;;;24.42;3.42;;;;;;;;;;5091306;28;20090;-74
2022/01/21 12:48:38;;;;;;;20.02;3.45;;;;;;;;;;5088686;28;20443;-76
2022/01/21 12:51:14;;;;;;;18.90;3.40;;;;;;;;;;5090387;28;20056;-73
2022/01/21 12:55:55;;;;;;;;;;;;;;;;;;5091445;28;20072;-73
2022/01/21 12:56:27;;;;;;;18.73;2.85;;;;;;;;;;5090976;28;19971;-75
2022/01/21 12:58:53;;;;;;;19.80;2.70;;;;;;;;;;5087416;28;20044;-74
2022/01/21 13:01:20;;;;;;;18.02;3.10;;;;;;;;;;5089901;28;20638;-75
2022/01/21 13:04:02;;;;;;;20.98;3.47;;;;;;;;;;5091170;28;20044;-80
2022/01/21 13:06:47;;;;;;;20.95;3.08;;;;;;;;;;5090261;28;20472;-73
2022/01/21 13:09:20;;;;;;;22.73;3.70;;;;;;;;;;5088105;28;20711;-73
2022/01/21 13:11:53;;;;;;;17.38;3.33;;;;;;;;;;5090323;28;20043;-73
2022/01/21 13:14:34;;;;;;;17.30;2.70;;;;;;;;;;5089257;28;20387;-74
2022/01/21 13:17:09;;;;;;;21.58;3.58;;;;;;;;;;5090806;28;20294;-74
2022/01/21 13:19:47;;;;;;;20.65;3.38;;;;;;;;;;5087520;28;20324;-74
2022/01/21 13:22:18;;;;;;;19.73;3.38;;;;;;;;;;5090535;28;20051;-75
2022/01/21 13:25:02;;;;;;;18.17;2.95;;;;;;;;;;5090944;28;20696;-74
2022/01/21 13:27:28;;;;;;;21.67;4.18;;;;;;;;;;5088004;28;20063;-82
2022/01/21 13:29:58;;;;;;;22.40;3.00;;;;;;;;;;5089353;28;20048;-77
2022/01/21 13:32:25;;;;;;;20.38;3.67;;;;;;;;;;5088861;28;20048;-75
2022/01/21 13:34:51;;;;;;;23.08;3.00;;;;;;;;;;5090096;28;20050;-75
2022/01/21 13:37:18;;;;;;;20.83;3.00;;;;;;;;;;5087737;28;20044;-85
2022/01/21 13:39:46;;;;;;;18.42;3.58;;;;;;;;;;5090496;28;20136;-84
2022/01/21 13:42:20;;;;;;;16.88;2.70;;;;;;;;;;5089493;28;20062;-81
2022/01/21 13:44:47;;;;;;;24.20;3.75;;;;;;;;;;5073237;28;20052;-78
2022/01/21 13:47:25;;;;;;;29.25;4.22;;;;;;;;;;5087228;28;20040;-83
2022/01/21 13:49:52;;;;;;;21.45;3.65;;;;;;;;;;5090056;28;20055;-81
2022/01/21 13:52:18;;;;;;;21.07;4.23;;;;;;;;;;5088052;28;20165;-84
2022/01/21 13:54:46;;;;;;;19.45;3.50;;;;;;;;;;5089969;28;20369;-82
2022/01/21 13:57:12;;;;;;;15.52;3.63;;;;;;;;;;5088725;28;20050;-81
2022/01/21 13:59:42;;;;;;;21.70;3.97;;;;;;;;;;5088760;28;20120;-73